Time;durP1;ratioP1;P1;durP2;ratioP2;P2;SDS_P1;SDS_P2;PMS_P1;PMS_P2;Temp;Humidity;BMP_temperature;BMP_pressure;BME280_temperature;BME280_humidity;BME280_pressure;Samples;Min_cycle;Max_cycle;Signal;HPM_P1;HPM_P2
2023/03/29 00:01:55;;;;;;;;;;;2.90;95.20;;;;;;4997938;28;19927;-79
2023/03/29 00:04:22;;;;;;;;;;;2.80;95.40;;;;;;5001161;28;19956;-79
2023/03/29 00:06:50;;;;;;;;;;;2.80;95.90;;;;;;5000044;28;19999;-79
2023/03/29 00:09:17;;;;;;;;;;;2.80;96.20;;;;;;4996561;28;19917;-79
2023/03/29 00:11:44;;;;;;;;;;;2.80;96.20;;;;;;5003202;28;19905;-80
2023/03/29 00:14:10;;;;;;;;;;;2.80;96.60;;;;;;4999068;28;19913;-79
2023/03/29 00:16:36;;;;;;;;;;;2.70;96.70;;;;;;5004062;28;19968;-79
2023/03/29 00:19:05;;;;;;;;;;;2.70;97.30;;;;;;5002864;28;19924;-82
2023/03/29 00:21:33;;;;;;;;;;;2.70;97.50;;;;;;5001908;28;19913;-79
2023/03/29 00:24:00;;;;;;;;;;;2.70;98.00;;;;;;4995072;28;19909;-80
2023/03/29 00:26:25;;;;;;;;;;;2.70;98.60;;;;;;4994932;28;19960;-80
2023/03/29 00:28:51;;;;;;;;;;;2.60;98.90;;;;;;5003785;28;20306;-80
2023/03/29 00:31:17;;;;;;;;;;;2.50;99.80;;;;;;4999538;28;19996;-79
2023/03/29 00:33:42;;;;;;;;;;;2.50;99.90;;;;;;5000311;28;19932;-79
2023/03/29 00:36:09;;;;;;;;;;;2.40;99.90;;;;;;5001628;28;19906;-80
2023/03/29 00:38:42;;;;;;;;;;;2.30;99.90;;;;;;5006895;28;19963;-79
2023/03/29 00:41:13;;;;;;;;;;;2.20;99.90;;;;;;5003469;28;19905;-79
2023/03/29 00:44:10;;;;;;;;;;;2.20;99.90;;;;;;5000541;28;19914;-79
2023/03/29 00:46:35;;;;;;;;;;;2.20;99.90;;;;;;4949118;28;19921;-79
2023/03/29 00:49:05;;;;;;;;;;;2.10;99.90;;;;;;4999278;28;19905;-80
2023/03/29 00:51:33;;;;;;;;;;;2.00;99.90;;;;;;4998391;28;20016;-80
2023/03/29 00:54:00;;;;;;;;;;;2.00;99.90;;;;;;5006160;28;20243;-79
2023/03/29 00:56:42;;;;;;;;;;;1.90;99.90;;;;;;4984356;28;19913;-79
2023/03/29 00:59:11;;;;;;;;;;;1.90;99.90;;;;;;5001401;28;19909;-80
2023/03/29 01:02:01;;;;;;;;;;;1.90;99.90;;;;;;4984283;28;19905;-80
2023/03/29 01:07:20;;;;;;;;;;;1.90;99.90;;;;;;5001891;28;19989;-79
2023/03/29 01:10:00;;;;;;;;;;;1.90;99.90;;;;;;4984202;28;19924;-80
2023/03/29 01:12:37;;;;;;;;;;;1.90;99.90;;;;;;5004593;28;19913;-80
2023/03/29 01:15:13;;;;;;;;;;;1.80;99.90;;;;;;5000550;28;19975;-80
2023/03/29 01:17:42;;;;;;;;;;;1.90;99.90;;;;;;5001842;28;20589;-79
2023/03/29 01:20:19;;;;;;;;;;;1.90;99.90;;;;;;5000220;28;19906;-80
2023/03/29 01:22:53;;;;;;;;;;;1.90;99.90;;;;;;5000295;28;19928;-80
2023/03/29 01:25:39;;;;;;;;;;;1.90;99.90;;;;;;5000395;28;19909;-80
2023/03/29 01:28:16;;;;;;;;;;;1.90;99.90;;;;;;5001382;28;19909;-79
2023/03/29 01:31:05;;;;;;;;;;;2.00;99.90;;;;;;4986028;28;20266;-79
2023/03/29 01:33:35;;;;;;;;;;;2.00;99.90;;;;;;5002873;28;20604;-80
2023/03/29 01:36:04;;;;;;;;;;;2.00;99.90;;;;;;5001412;28;19905;-80
2023/03/29 01:38:35;;;;;;;;;;;2.00;99.90;;;;;;5000259;28;19913;-80
2023/03/29 01:41:05;;;;;;;;;;;2.00;99.90;;;;;;5000978;28;19909;-80
2023/03/29 01:43:56;;;;;;;;;;;2.00;99.90;;;;;;5000114;28;19913;-80
2023/03/29 01:46:31;;;;;;;;;;;1.90;99.90;;;;;;4996782;28;19913;-80
2023/03/29 01:49:05;;;;;;;;;;;1.80;99.90;;;;;;4989473;28;20359;-80
2023/03/29 01:51:37;;;;;;;;;;;1.80;99.90;;;;;;5001842;28;19909;-80
2023/03/29 01:54:06;;;;;;;;;;;1.70;99.90;;;;;;4992777;28;19905;-80
2023/03/29 01:56:38;;;;;;;;;;;1.70;99.90;;;;;;5001663;28;19911;-79
2023/03/29 01:59:06;;;;;;;;;;;1.70;99.90;;;;;;4985801;28;19909;-80
2023/03/29 02:01:41;;;;;;;;;;;1.60;99.90;;;;;;5002614;28;19905;-80
2023/03/29 02:04:19;;;;;;;;;;;1.60;99.90;;;;;;5005799;28;19964;-80
2023/03/29 02:06:49;;;;;;;;;;;1.60;99.90;;;;;;5000296;28;20301;-80
2023/03/29 02:09:15;;;;;;;;;;;1.50;99.90;;;;;;5000373;28;19917;-79
2023/03/29 02:11:48;;;;;;;;;;;1.50;99.90;;;;;;5002448;28;19961;-80
2023/03/29 02:14:16;;;;;;;;;;;1.50;99.90;;;;;;4999606;28;19948;-80
2023/03/29 02:16:50;;;;;;;;;;;1.40;99.90;;;;;;5000107;28;19932;-80
2023/03/29 02:19:17;;;;;;;;;;;1.40;99.90;;;;;;5001196;28;19956;-79
2023/03/29 02:21:53;;;;;;;;;;;1.30;99.90;;;;;;5003144;28;19996;-80
2023/03/29 02:24:31;;;;;;;;;;;1.30;99.90;;;;;;4999687;28;19918;-80
2023/03/29 02:27:00;;;;;;;;;;;1.20;99.90;;;;;;4998628;28;19936;-80
2023/03/29 02:29:31;;;;;;;;;;;1.20;99.90;;;;;;5004513;28;20003;-80
2023/03/29 02:31:59;;;;;;;;;;;1.20;99.90;;;;;;5003473;28;19929;-80
2023/03/29 02:34:30;;;;;;;;;;;1.10;99.90;;;;;;5000835;28;19913;-80
2023/03/29 02:37:05;;;;;;;;;;;1.10;99.90;;;;;;5001589;28;19928;-80
2023/03/29 02:39:32;;;;;;;;;;;1.10;99.90;;;;;;5004862;28;19912;-80
2023/03/29 02:42:02;;;;;;;;;;;1.20;99.90;;;;;;4998813;28;21469;-80
2023/03/29 02:44:33;;;;;;;;;;;1.20;99.90;;;;;;4999758;28;20157;-80
2023/03/29 02:47:02;;;;;;;;;;;1.30;99.90;;;;;;4987007;28;19909;-80
2023/03/29 02:49:35;;;;;;;;;;;1.30;99.90;;;;;;4994215;28;19914;-80
2023/03/29 02:52:07;;;;;;;;;;;1.30;99.90;;;;;;4999802;28;19917;-80
2023/03/29 02:54:36;;;;;;;;;;;1.30;99.90;;;;;;4999937;28;19913;-81
2023/03/29 02:57:05;;;;;;;;;;;1.40;99.90;;;;;;4995529;28;19988;-80
2023/03/29 02:59:39;;;;;;;;;;;1.40;99.90;;;;;;5000234;28;19905;-80
2023/03/29 03:02:08;;;;;;;;;;;1.40;99.90;;;;;;4999391;28;19960;-79
2023/03/29 03:04:36;;;;;;;;;;;1.40;99.90;;;;;;4999788;28;19913;-80
2023/03/29 03:07:04;;;;;;;;;;;1.30;99.90;;;;;;4982265;28;20370;-80
2023/03/29 03:09:29;;;;;;;;;;;1.30;99.90;;;;;;4999291;28;20506;-80
2023/03/29 03:11:55;;;;;;;;;;;1.30;99.90;;;;;;4999810;28;20410;-80
2023/03/29 03:14:22;;;;;;;;;;;1.30;99.90;;;;;;4997642;28;20271;-80
2023/03/29 03:16:54;;;;;;;;;;;1.30;99.90;;;;;;5003933;28;19905;-80
2023/03/29 03:19:20;;;;;;;;;;;1.40;99.90;;;;;;5001033;28;19913;-80
2023/03/29 03:21:48;;;;;;;;;;;1.40;99.90;;;;;;5006521;28;19913;-80
2023/03/29 03:24:16;;;;;;;;;;;1.50;99.90;;;;;;5001659;28;19909;-79
2023/03/29 03:26:51;;;;;;;;;;;1.50;99.90;;;;;;4997762;28;19912;-80
2023/03/29 03:29:18;;;;;;;;;;;1.60;99.90;;;;;;5002081;28;19905;-80
2023/03/29 03:31:57;;;;;;;;;;;1.60;99.90;;;;;;4998186;28;19949;-80
2023/03/29 03:34:23;;;;;;;;;;;1.60;99.90;;;;;;4998634;28;19905;-80
2023/03/29 03:36:53;;;;;;;;;;;1.60;99.90;;;;;;5007982;28;19951;-80
2023/03/29 03:39:19;;;;;;;;;;;1.60;99.90;;;;;;5002949;28;19943;-80
2023/03/29 03:41:44;;;;;;;;;;;1.50;99.90;;;;;;5005852;28;19952;-79
2023/03/29 03:44:10;;;;;;;;;;;1.50;99.90;;;;;;5006757;28;19916;-80
2023/03/29 03:46:36;;;;;;;;;;;1.40;99.90;;;;;;5006974;28;19960;-80
2023/03/29 03:49:04;;;;;;;;;;;1.40;99.90;;;;;;5010049;28;19909;-79
2023/03/29 03:51:31;;;;;;;;;;;1.30;99.90;;;;;;5009390;28;19963;-80
2023/03/29 03:54:04;;;;;;;;;;;1.30;99.90;;;;;;5006856;28;19920;-80
2023/03/29 03:56:33;;;;;;;;;;;1.20;99.90;;;;;;5004741;28;19905;-80
2023/03/29 03:59:00;;;;;;;;;;;1.20;99.90;;;;;;5003967;28;19905;-80
2023/03/29 04:01:26;;;;;;;;;;;1.20;99.90;;;;;;5005136;28;19913;-80
2023/03/29 04:03:53;;;;;;;;;;;1.20;99.90;;;;;;5010538;28;19909;-80
2023/03/29 04:06:19;;;;;;;;;;;1.30;99.90;;;;;;5007382;28;20354;-80
2023/03/29 04:08:46;;;;;;;;;;;1.30;99.90;;;;;;5006061;28;19909;-80
2023/03/29 04:11:12;;;;;;;;;;;1.30;99.90;;;;;;5007448;28;19923;-81
2023/03/29 04:13:38;;;;;;;;;;;1.30;99.90;;;;;;5004217;28;19973;-80
2023/03/29 04:16:05;;;;;;;;;;;1.30;99.90;;;;;;5001597;28;19917;-80
2023/03/29 04:18:32;;;;;;;;;;;1.30;99.90;;;;;;5006093;28;19909;-80
2023/03/29 04:20:58;;;;;;;;;;;1.30;99.90;;;;;;5004583;28;20004;-80
2023/03/29 04:23:30;;;;;;;;;;;1.20;99.90;;;;;;5006037;28;20052;-79
2023/03/29 04:25:57;;;;;;;;;;;1.30;99.90;;;;;;4988527;28;19929;-79
2023/03/29 04:28:22;;;;;;;;;;;1.30;99.90;;;;;;4999671;28;19911;-80
2023/03/29 04:30:58;;;;;;;;;;;1.20;99.90;;;;;;5006386;28;20290;-79
2023/03/29 04:33:32;;;;;;;;;;;1.20;99.90;;;;;;4998328;28;19921;-79
2023/03/29 04:35:59;;;;;;;;;;;1.20;99.90;;;;;;4988612;28;19914;-79
2023/03/29 04:38:25;;;;;;;;;;;1.20;99.90;;;;;;5000994;28;20043;-80
2023/03/29 04:41:07;;;;;;;;;;;1.20;99.90;;;;;;4996365;28;19905;-80
2023/03/29 04:43:33;;;;;;;;;;;1.30;99.90;;;;;;4997677;28;20351;-79
2023/03/29 04:46:02;;;;;;;;;;;1.40;99.90;;;;;;5001681;28;19912;-79
2023/03/29 04:48:31;;;;;;;;;;;1.50;99.90;;;;;;5002656;28;19905;-79
2023/03/29 04:50:59;;;;;;;;;;;1.60;99.90;;;;;;5002249;28;20337;-79
2023/03/29 04:53:30;;;;;;;;;;;1.70;99.90;;;;;;5000774;28;19913;-79
2023/03/29 04:56:06;;;;;;;;;;;1.90;99.90;;;;;;5007526;28;20005;-79
2023/03/29 04:58:33;;;;;;;;;;;2.00;99.90;;;;;;4999059;28;20031;-78
2023/03/29 05:00:59;;;;;;;;;;;2.10;99.90;;;;;;5006134;28;19912;-79
2023/03/29 05:03:25;;;;;;;;;;;2.30;99.90;;;;;;5002755;28;19918;-79
2023/03/29 05:05:56;;;;;;;;;;;2.40;99.90;;;;;;5001435;28;19905;-79
2023/03/29 05:08:22;;;;;;;;;;;2.50;99.90;;;;;;4990780;28;19906;-79
2023/03/29 05:10:49;;;;;;;;;;;2.70;99.90;;;;;;5001010;28;20381;-79
2023/03/29 05:13:16;;;;;;;;;;;2.70;99.90;;;;;;5000126;28;19921;-79
2023/03/29 05:15:41;;;;;;;;;;;2.80;99.90;;;;;;5005267;28;19905;-79
2023/03/29 05:18:07;;;;;;;;;;;2.80;99.90;;;;;;4999854;28;19923;-78
2023/03/29 05:20:33;;;;;;;;;;;2.80;99.90;;;;;;4999584;28;19905;-79
2023/03/29 05:23:00;;;;;;;;;;;2.80;99.90;;;;;;4984833;28;19953;-73
2023/03/29 05:25:25;;;;;;;;;;;2.80;99.90;;;;;;4999255;28;19957;-79
2023/03/29 05:27:51;;;;;;;;;;;2.80;99.90;;;;;;4996611;28;19949;-80
2023/03/29 05:30:18;;;;;;;;;;;2.80;99.90;;;;;;4993526;28;19912;-79
2023/03/29 05:32:43;;;;;;;;;;;2.70;99.90;;;;;;5000047;28;19916;-79
2023/03/29 05:35:10;;;;;;;;;;;2.60;99.90;;;;;;4999415;28;20369;-79
2023/03/29 05:37:36;;;;;;;;;;;2.70;99.90;;;;;;4992699;28;19906;-79
2023/03/29 05:40:08;;;;;;;;;;;2.90;99.90;;;;;;4997884;28;19913;-79
2023/03/29 05:42:34;;;;;;;;;;;3.10;99.90;;;;;;4999234;28;19918;-79
2023/03/29 05:45:00;;;;;;;;;;;3.40;99.90;;;;;;4995619;28;19913;-79
2023/03/29 05:47:27;;;;;;;;;;;3.50;99.90;;;;;;4999525;28;20371;-79
2023/03/29 05:49:52;;;;;;;;;;;3.70;99.90;;;;;;5004137;28;19964;-79
2023/03/29 05:52:18;;;;;;;;;;;3.90;99.90;;;;;;4997295;28;19909;-78
2023/03/29 05:54:44;;;;;;;;;;;4.10;99.90;;;;;;5001287;28;19909;-80
2023/03/29 05:57:10;;;;;;;;;;;4.40;99.90;;;;;;5008917;28;19910;-79
2023/03/29 05:59:37;;;;;;;;;;;4.70;99.90;;;;;;5002678;28;19905;-79
2023/03/29 06:02:03;;;;;;;;;;;4.90;99.90;;;;;;4997363;28;19912;-80
2023/03/29 06:04:29;;;;;;;;;;;5.20;99.90;;;;;;4993499;28;19996;-81
2023/03/29 06:07:24;;;;;;;;;;;5.90;99.60;;;;;;4997181;28;20011;-77
2023/03/29 06:09:50;;;;;;;;;;;6.90;97.50;;;;;;4999494;28;20355;-79
2023/03/29 06:15:17;;;;;;;;;;;7.70;91.70;;;;;;4984242;28;19916;-79
2023/03/29 06:17:54;;;;;;;;;;;7.90;90.30;;;;;;5003186;28;19909;-77
2023/03/29 06:20:25;;;;;;;;;;;7.80;89.10;;;;;;5000042;28;19956;-80
2023/03/29 06:22:52;;;;;;;;;;;8.10;88.30;;;;;;4994631;28;19909;-80
2023/03/29 06:25:24;;;;;;;;;;;8.90;85.40;;;;;;4998455;28;20012;-79
2023/03/29 06:28:06;;;;;;;;;;;10.10;79.00;;;;;;4992586;28;19905;-80
2023/03/29 06:30:32;;;;;;;;;;;11.30;72.50;;;;;;4999231;28;20355;-79
2023/03/29 06:33:05;;;;;;;;;;;11.70;67.00;;;;;;4998083;28;19910;-79
2023/03/29 06:35:33;;;;;;;;;;;12.00;66.60;;;;;;4997456;28;20388;-80
2023/03/29 06:38:02;;;;;;;;;;;11.60;66.20;;;;;;4999505;28;19905;-79
2023/03/29 06:40:29;;;;;;;;;;;10.90;67.20;;;;;;4998381;28;20020;-80
2023/03/29 06:42:58;;;;;;;;;;;10.80;67.90;;;;;;4999593;28;19917;-80
2023/03/29 06:45:27;;;;;;;;;;;12.10;66.60;;;;;;4998700;28;20110;-80
2023/03/29 06:47:54;;;;;;;;;;;13.60;62.70;;;;;;4982096;28;19905;-79
2023/03/29 06:50:22;;;;;;;;;;;14.20;60.10;;;;;;4999409;28;19906;-79
2023/03/29 06:52:48;;;;;;;;;;;13.90;58.80;;;;;;5000017;28;20282;-80
2023/03/29 06:55:16;;;;;;;;;;;13.90;58.50;;;;;;4997486;28;19931;-79
2023/03/29 06:57:42;;;;;;;;;;;13.40;58.60;;;;;;5002575;28;19909;-79
2023/03/29 07:03:09;;;;;;;;;;;12.50;59.10;;;;;;4967157;28;19909;-79
2023/03/29 07:05:40;;;;;;;;;;;11.90;60.20;;;;;;4997682;28;19964;-79
2023/03/29 07:10:41;;;;;;;;;;;10.60;61.70;;;;;;4999569;28;19952;-79
2023/03/29 07:13:14;;;;;;;;;;;10.10;62.50;;;;;;4992357;28;19946;-79
2023/03/29 07:15:45;;;;;;;;;;;9.70;63.10;;;;;;4995787;28;19905;-79
2023/03/29 07:18:17;;;;;;;;;;;9.80;63.80;;;;;;4999546;28;19968;-80
2023/03/29 07:20:43;;;;;;;;;;;9.80;63.30;;;;;;4999901;28;19963;-79
2023/03/29 07:23:16;;;;;;;;;;;9.80;64.50;;;;;;4997505;28;19913;-79
2023/03/29 07:26:07;;;;;;;;;;;9.60;63.60;;;;;;4998593;28;19984;-79
2023/03/29 07:28:39;;;;;;;;;;;9.50;63.70;;;;;;4998626;28;19905;-79
2023/03/29 07:34:32;;;;;;;;;;;8.60;65.10;;;;;;4925929;28;20295;-79
2023/03/29 07:40:44;;;;;;;;;;;9.00;65.30;;;;;;4942699;28;19913;-77
2023/03/29 07:43:37;;;;;;;;;;;8.80;65.00;;;;;;4885673;29;19911;-77
2023/03/29 07:46:09;;;;;;;;;;;8.90;65.50;;;;;;4958665;28;20362;-79
2023/03/29 07:48:37;;;;;;;;;;;8.80;64.80;;;;;;4997997;28;19909;-78
2023/03/29 07:51:48;;;;;;;;;;;9.00;65.40;;;;;;5004043;28;19909;-78
2023/03/29 07:54:07;;;;;;;;;;;9.00;65.80;;;;;;4990871;28;20018;-78
2023/03/29 07:56:34;;;;;;;;;;;9.00;65.80;;;;;;5004050;28;19905;-78
2023/03/29 07:59:01;;;;;;;;;;;8.90;65.50;;;;;;4997812;28;20540;-77
2023/03/29 08:01:29;;;;;;;;;;;9.20;64.70;;;;;;4997034;28;19924;-78
2023/03/29 08:03:55;;;;;;;;;;;9.20;64.90;;;;;;4979668;28;19917;-78
2023/03/29 08:06:21;;;;;;;;;;;9.40;64.80;;;;;;4996798;28;19912;-78
2023/03/29 08:08:51;;;;;;;;;;;9.70;64.30;;;;;;4997764;28;19995;-78
2023/03/29 08:11:17;;;;;;;;;;;9.90;63.90;;;;;;4994320;28;19914;-78
2023/03/29 08:13:46;;;;;;;;;;;10.10;62.70;;;;;;4996843;28;19905;-78
2023/03/29 08:16:12;;;;;;;;;;;10.50;62.30;;;;;;4998650;28;19936;-78
2023/03/29 08:18:45;;;;;;;;;;;11.40;61.00;;;;;;4998635;28;19916;-78
2023/03/29 08:21:13;;;;;;;;;;;11.80;59.80;;;;;;4992614;28;19991;-78
2023/03/29 08:23:41;;;;;;;;;;;12.00;58.80;;;;;;4996667;28;19959;-78
2023/03/29 08:26:09;;;;;;;;;;;12.50;58.20;;;;;;5002358;28;19905;-77
2023/03/29 08:28:36;;;;;;;;;;;11.60;58.50;;;;;;4999143;28;20351;-78
2023/03/29 08:31:02;;;;;;;;;;;11.30;59.90;;;;;;4994513;28;19916;-78
2023/03/29 08:33:31;;;;;;;;;;;11.40;59.10;;;;;;4998174;28;20275;-78
2023/03/29 08:35:58;;;;;;;;;;;11.50;58.50;;;;;;4979966;28;19945;-78
2023/03/29 08:38:28;;;;;;;;;;;11.10;59.50;;;;;;4997196;28;19928;-78
2023/03/29 08:40:58;;;;;;;;;;;11.40;59.30;;;;;;4993458;28;19913;-78
2023/03/29 08:43:44;;;;;;;;;;;11.20;60.00;;;;;;4997249;28;19913;-78
2023/03/29 08:46:59;;;;;;;;;;;10.90;59.90;;;;;;4995666;28;19948;-77
2023/03/29 08:49:36;;;;;;;;;;;11.00;60.60;;;;;;4958640;28;19921;-78
2023/03/29 08:52:10;;;;;;;;;;;10.90;60.80;;;;;;4998609;28;20378;-78
2023/03/29 08:54:43;;;;;;;;;;;11.30;60.20;;;;;;4997624;28;20311;-77
2023/03/29 08:57:18;;;;;;;;;;;11.70;58.70;;;;;;5000762;28;19905;-77
2023/03/29 09:00:10;;;;;;;;;;;11.50;58.90;;;;;;5001471;28;19905;-77
2023/03/29 09:02:36;;;;;;;;;;;10.80;59.80;;;;;;5004705;28;19909;-78
2023/03/29 09:05:17;;;;;;;;;;;10.60;59.70;;;;;;4997868;28;19909;-77
2023/03/29 09:07:43;;;;;;;;;;;10.70;60.20;;;;;;5002581;28;20001;-77
2023/03/29 09:10:14;;;;;;;;;;;10.70;60.00;;;;;;4999961;28;20016;-77
2023/03/29 09:16:04;;;;;;;;;;;9.70;61.50;;;;;;5004203;28;19964;-79
2023/03/29 09:18:44;;;;;;;;;;;9.50;62.90;;;;;;5000880;28;19909;-78
2023/03/29 09:24:45;;;;;;;;;;;9.60;62.70;;;;;;4980194;28;19909;-79
2023/03/29 09:27:35;;;;;;;;;;;9.80;62.20;;;;;;4934017;29;19951;-77
2023/03/29 09:30:03;;;;;;;;;;;9.80;61.30;;;;;;4938822;29;19956;-79
2023/03/29 09:35:22;;;;;;;;;;;9.90;61.40;;;;;;5000542;28;19916;-79
2023/03/29 09:37:50;;;;;;;;;;;10.20;61.50;;;;;;4999497;28;19905;-79
2023/03/29 09:40:21;;;;;;;;;;;10.50;61.10;;;;;;4983068;28;19912;-79
2023/03/29 09:42:50;;;;;;;;;;;10.70;60.80;;;;;;5003096;28;19916;-79
2023/03/29 09:45:30;;;;;;;;;;;10.60;60.80;;;;;;4998840;28;20354;-79
2023/03/29 09:47:57;;;;;;;;;;;10.60;61.00;;;;;;4999217;28;19999;-79
2023/03/29 09:50:32;;;;;;;;;;;10.60;61.20;;;;;;5000417;28;19905;-79
2023/03/29 09:53:02;;;;;;;;;;;10.60;61.20;;;;;;4981443;28;19920;-79
2023/03/29 09:55:32;;;;;;;;;;;10.80;61.10;;;;;;4982623;28;20075;-79
2023/03/29 09:58:18;;;;;;;;;;;10.90;61.30;;;;;;4999227;28;19963;-79
2023/03/29 10:00:49;;;;;;;;;;;10.80;61.50;;;;;;4995918;28;19906;-79
2023/03/29 10:03:26;;;;;;;;;;;10.80;61.20;;;;;;5000021;28;19920;-79
2023/03/29 10:05:55;;;;;;;;;;;11.00;62.00;;;;;;4995553;28;19912;-79
2023/03/29 10:08:22;;;;;;;;;;;10.90;60.60;;;;;;4998475;28;19906;-78
2023/03/29 10:10:57;;;;;;;;;;;10.50;61.20;;;;;;5000069;28;19959;-78
2023/03/29 10:13:34;;;;;;;;;;;10.50;61.40;;;;;;4999161;28;19913;-78
2023/03/29 10:16:00;;;;;;;;;;;10.40;62.20;;;;;;4996201;28;19913;-79
2023/03/29 10:18:28;;;;;;;;;;;10.40;62.80;;;;;;4999861;28;19913;-79
2023/03/29 10:21:00;;;;;;;;;;;10.40;62.20;;;;;;4998784;28;20486;-79
2023/03/29 10:23:31;;;;;;;;;;;10.50;62.30;;;;;;4984118;28;20706;-79
2023/03/29 10:25:59;;;;;;;;;;;10.40;62.70;;;;;;4996570;28;19920;-78
2023/03/29 10:28:26;;;;;;;;;;;10.40;63.20;;;;;;4998740;28;20019;-79
2023/03/29 10:30:56;;;;;;;;;;;10.20;63.20;;;;;;4996894;28;19905;-79
2023/03/29 10:33:23;;;;;;;;;;;10.10;62.90;;;;;;4999828;28;19931;-79
2023/03/29 10:35:49;;;;;;;;;;;10.40;63.20;;;;;;4997203;28;19988;-78
2023/03/29 10:38:17;;;;;;;;;;;10.30;63.30;;;;;;4994712;28;19909;-79
2023/03/29 10:40:44;;;;;;;;;;;10.40;63.80;;;;;;4997794;28;19948;-79
2023/03/29 10:43:23;;;;;;;;;;;10.40;62.90;;;;;;4998866;28;19924;-77
2023/03/29 10:45:50;;;;;;;;;;;10.10;62.90;;;;;;4996856;28;19913;-79
2023/03/29 10:48:18;;;;;;;;;;;10.10;63.30;;;;;;5005191;28;19905;-79
2023/03/29 10:50:48;;;;;;;;;;;10.40;63.70;;;;;;5000087;28;19945;-79
2023/03/29 10:56:28;;;;;;;;;;;9.90;63.80;;;;;;4997416;28;19916;-76
2023/03/29 10:58:57;;;;;;;;;;;9.90;64.70;;;;;;4980936;28;19909;-79
2023/03/29 11:01:46;;;;;;;;;;;10.10;64.40;;;;;;4998661;28;19909;-79
2023/03/29 11:04:46;;;;;;;;;;;10.10;64.30;;;;;;4964687;28;19996;-79
2023/03/29 11:07:21;;;;;;;;;;;9.90;65.10;;;;;;4958029;28;20362;-79
2023/03/29 11:09:54;;;;;;;;;;;9.90;65.40;;;;;;5001926;28;19916;-79
2023/03/29 11:12:57;;;;;;;;;;;9.90;65.60;;;;;;4996319;28;19975;-76
2023/03/29 11:15:44;;;;;;;;;;;10.10;65.40;;;;;;4996501;28;19955;-79
2023/03/29 11:18:13;;;;;;;;;;;10.10;64.90;;;;;;4997939;28;19905;-78
2023/03/29 11:20:54;;;;;;;;;;;9.70;65.40;;;;;;4995924;28;19912;-79
2023/03/29 11:23:25;;;;;;;;;;;9.30;67.10;;;;;;5002442;28;19996;-79
2023/03/29 11:26:03;;;;;;;;;;;9.30;68.10;;;;;;4981385;28;19951;-78
2023/03/29 11:28:44;;;;;;;;;;;9.50;68.70;;;;;;4998184;28;19964;-79
2023/03/29 11:31:13;;;;;;;;;;;9.60;69.90;;;;;;4995309;28;19952;-77
2023/03/29 11:33:48;;;;;;;;;;;9.50;69.20;;;;;;4982099;28;19905;-78
2023/03/29 11:36:38;;;;;;;;;;;9.70;69.50;;;;;;4999062;28;20419;-78
2023/03/29 11:39:04;;;;;;;;;;;10.00;69.90;;;;;;4982524;28;19910;-78
2023/03/29 11:41:32;;;;;;;;;;;9.80;70.80;;;;;;4977565;28;19915;-78
2023/03/29 11:44:19;;;;;;;;;;;10.00;70.90;;;;;;4998490;28;19913;-78
2023/03/29 11:50:13;;;;;;;;;;;10.30;70.50;;;;;;4998717;28;19913;-79
2023/03/29 11:52:44;;;;;;;;;;;10.00;70.60;;;;;;4992421;28;20728;-77
2023/03/29 11:55:22;;;;;;;;;;;9.90;72.20;;;;;;4999411;28;19909;-78
2023/03/29 11:58:06;;;;;;;;;;;9.90;73.10;;;;;;4996995;28;19909;-77
2023/03/29 12:00:46;;;;;;;;;;;9.50;73.20;;;;;;4998548;28;19906;-78
2023/03/29 12:03:38;;;;;;;;;;;9.70;73.70;;;;;;4997437;28;19910;-79
2023/03/29 12:06:11;;;;;;;;;;;9.80;73.90;;;;;;4997146;28;19944;-78
2023/03/29 12:08:45;;;;;;;;;;;10.10;75.70;;;;;;4999923;28;19912;-77
2023/03/29 12:11:24;;;;;;;;;;;10.10;77.40;;;;;;4980238;28;20350;-78
2023/03/29 12:14:08;;;;;;;;;;;10.10;77.00;;;;;;4978599;28;19967;-79
2023/03/29 12:16:47;;;;;;;;;;;10.20;79.80;;;;;;5002131;28;20429;-79
2023/03/29 12:19:31;;;;;;;;;;;10.10;80.20;;;;;;4999329;28;20405;-78
2023/03/29 12:22:07;;;;;;;;;;;9.90;82.10;;;;;;5002788;28;19914;-78
2023/03/29 12:24:43;;;;;;;;;;;9.80;81.00;;;;;;5002857;28;19960;-77
2023/03/29 12:27:10;;;;;;;;;;;9.60;81.00;;;;;;5002788;28;19956;-77
2023/03/29 12:30:13;;;;;;;;;;;9.70;82.20;;;;;;5002723;28;19928;-78
2023/03/29 12:33:19;;;;;;;;;;;9.80;82.10;;;;;;4992908;28;20059;-78
2023/03/29 12:36:21;;;;;;;;;;;10.00;80.30;;;;;;5001593;28;19905;-79
2023/03/29 12:38:52;;;;;;;;;;;10.20;80.20;;;;;;5003856;28;19905;-78
2023/03/29 12:41:43;;;;;;;;;;;10.70;80.50;;;;;;4988488;28;19959;-79
2023/03/29 12:44:15;;;;;;;;;;;10.90;81.30;;;;;;4997733;28;19955;-78
2023/03/29 12:46:49;;;;;;;;;;;10.80;80.90;;;;;;5004503;28;20007;-78
2023/03/29 12:49:27;;;;;;;;;;;10.90;80.10;;;;;;5001999;28;19941;-79
2023/03/29 12:51:56;;;;;;;;;;;10.60;80.20;;;;;;4997811;28;20753;-80
2023/03/29 12:55:14;;;;;;;;;;;10.30;80.80;;;;;;5001587;28;20051;-79
2023/03/29 12:57:23;;;;;;;;;;;10.00;82.10;;;;;;4990779;28;19909;-79
2023/03/29 12:59:51;;;;;;;;;;;10.20;82.90;;;;;;5003227;28;19912;-77
2023/03/29 13:02:46;;;;;;;;;;;;;;;;;;;;;
2023/03/29 13:09:28;;;;;;;;;;;10.70;83.40;;;;;;4917819;29;19907;-79
2023/03/29 13:11:59;;;;;;;;;;;10.40;85.00;;;;;;4921723;29;19922;-78
2023/03/29 13:17:47;;;;;;;;;;;10.20;87.80;;;;;;4921115;29;19971;-79
2023/03/29 13:20:21;;;;;;;;;;;10.30;88.10;;;;;;4921657;29;19907;-78
2023/03/29 13:22:46;;;;;;;;;;;10.70;87.10;;;;;;4938354;28;20393;-77
2023/03/29 13:25:23;;;;;;;;;;;10.70;87.10;;;;;;4985564;28;19905;-79
2023/03/29 13:27:56;;;;;;;;;;;10.60;88.10;;;;;;5004825;28;19937;-78
2023/03/29 13:30:39;;;;;;;;;;;10.80;88.10;;;;;;5000322;28;19913;-78
2023/03/29 13:33:33;;;;;;;;;;;10.80;87.80;;;;;;5001441;28;19909;-79
2023/03/29 13:36:21;;;;;;;;;;;10.80;88.00;;;;;;4999564;28;19905;-78
2023/03/29 13:38:53;;;;;;;;;;;10.90;89.10;;;;;;4962792;28;19917;-79
2023/03/29 13:41:43;;;;;;;;;;;11.10;89.10;;;;;;4982669;28;20014;-78
2023/03/29 13:44:22;;;;;;;;;;;11.30;87.90;;;;;;4989181;28;19959;-79
2023/03/29 13:47:00;;;;;;;;;;;11.30;87.90;;;;;;4986761;28;20255;-78
2023/03/29 13:49:28;;;;;;;;;;;11.30;87.50;;;;;;5000756;28;19913;-78
2023/03/29 13:51:59;;;;;;;;;;;11.30;87.30;;;;;;5004918;28;20394;-79
2023/03/29 13:54:40;;;;;;;;;;;11.00;89.40;;;;;;4984199;28;19913;-78
2023/03/29 13:57:16;;;;;;;;;;;11.00;90.10;;;;;;4996012;28;19999;-78
2023/03/29 14:03:06;;;;;;;;;;;11.10;90.60;;;;;;5000485;28;19964;-79
2023/03/29 14:05:36;;;;;;;;;;;10.90;90.60;;;;;;4942863;28;19909;-78
2023/03/29 14:08:12;;;;;;;;;;;10.50;91.30;;;;;;4994052;28;20171;-78
2023/03/29 14:10:40;;;;;;;;;;;10.60;91.30;;;;;;4992939;28;19912;-78
2023/03/29 14:13:19;;;;;;;;;;;10.90;91.40;;;;;;4996200;28;20016;-78
2023/03/29 14:16:07;;;;;;;;;;;10.90;91.10;;;;;;4997745;28;19921;-79
2023/03/29 14:18:38;;;;;;;;;;;10.70;92.70;;;;;;4998037;28;19913;-78
2023/03/29 14:21:04;;;;;;;;;;;10.50;94.30;;;;;;5004788;28;19932;-78
2023/03/29 14:23:35;;;;;;;;;;;10.20;95.80;;;;;;5003569;28;19916;-85
2023/03/29 14:26:18;;;;;;;;;;;10.00;97.60;;;;;;5001231;28;19916;-78
2023/03/29 14:28:47;;;;;;;;;;;10.00;98.00;;;;;;5000053;28;19913;-79
2023/03/29 14:31:31;;;;;;;;;;;10.00;99.10;;;;;;4984440;28;19917;-78
2023/03/29 14:34:00;;;;;;;;;;;9.90;99.70;;;;;;4999607;28;20430;-79
2023/03/29 14:39:55;;;;;;;;;;;9.90;99.90;;;;;;4958959;28;19979;-79
2023/03/29 14:45:28;;;;;;;;;;;10.00;99.90;;;;;;4973794;28;19950;-78
2023/03/29 14:48:00;;;;;;;;;;;10.00;99.90;;;;;;5003847;28;19931;-79
2023/03/29 14:50:31;;;;;;;;;;;10.00;99.90;;;;;;4998027;28;19920;-78
2023/03/29 14:53:00;;;;;;;;;;;9.90;99.90;;;;;;4984889;28;20625;-78
2023/03/29 14:55:27;;;;;;;;;;;9.90;99.90;;;;;;4998546;28;19940;-78
2023/03/29 14:57:59;;;;;;;;;;;10.00;99.90;;;;;;4999151;28;19913;-78
2023/03/29 15:00:46;;;;;;;;;;;9.90;99.90;;;;;;4994475;28;19913;-78
2023/03/29 15:03:35;;;;;;;;;;;10.00;99.90;;;;;;4993287;28;19927;-76
2023/03/29 15:06:25;;;;;;;;;;;9.70;99.90;;;;;;4982631;28;20404;-78
2023/03/29 15:08:56;;;;;;;;;;;9.80;99.90;;;;;;4992831;28;20008;-81
2023/03/29 15:11:26;;;;;;;;;;;9.70;99.90;;;;;;4998139;28;19997;-80
2023/03/29 15:13:57;;;;;;;;;;;9.40;99.90;;;;;;4998838;28;19905;-79
2023/03/29 15:19:26;;;;;;;;;;;9.40;99.90;;;;;;4998948;28;19924;-78
2023/03/29 15:22:01;;;;;;;;;;;9.50;99.90;;;;;;4999872;28;19905;-78
2023/03/29 15:24:32;;;;;;;;;;;9.60;99.90;;;;;;4996577;28;19917;-80
2023/03/29 15:27:09;;;;;;;;;;;9.70;99.90;;;;;;4999068;28;19917;-80
2023/03/29 15:29:40;;;;;;;;;;;9.70;99.90;;;;;;4998074;28;20255;-79
2023/03/29 15:32:27;;;;;;;;;;;9.70;99.90;;;;;;4993624;28;19909;-78
2023/03/29 15:37:56;;;;;;;;;;;9.50;99.90;;;;;;4997520;28;19921;-79
2023/03/29 15:40:24;;;;;;;;;;;9.40;99.90;;;;;;4997536;28;19909;-79
2023/03/29 15:42:50;;;;;;;;;;;9.20;99.90;;;;;;4981208;28;19987;-78
2023/03/29 15:48:57;;;;;;;;;;;9.10;99.90;;;;;;4934058;28;19918;-76
2023/03/29 15:51:20;;;;;;;;;;;9.10;99.90;;;;;;4957427;28;19959;-79
2023/03/29 15:53:48;;;;;;;;;;;9.10;99.90;;;;;;4999775;28;19909;-78
2023/03/29 15:56:21;;;;;;;;;;;9.10;99.90;;;;;;4978272;28;19951;-79
2023/03/29 15:59:00;;;;;;;;;;;9.00;99.90;;;;;;5002568;28;19913;-78